Time;durP1;ratioP1;P1;durP2;ratioP2;P2;SDS_P1;SDS_P2;PMS_P1;PMS_P2;Temp;Humidity;BMP_temperature;BMP_pressure;BME280_temperature;BME280_humidity;BME280_pressure;Samples;Min_cycle;Max_cycle;Signal;HPM_P1;HPM_P2
2021/09/26 00:00:02;;;;;;;8.37;7.47;;;;;;;;;;5100304;28;20454;-71
2021/09/26 00:02:30;;;;;;;9.53;7.30;;;;;;;;;;5099816;28;20472;-71
2021/09/26 00:05:00;;;;;;;10.17;7.60;;;;;;;;;;5099912;28;20600;-71
2021/09/26 00:07:28;;;;;;;10.63;8.60;;;;;;;;;;5100178;28;20482;-71
2021/09/26 00:09:56;;;;;;;11.93;8.80;;;;;;;;;;5100163;28;20526;-70
2021/09/26 00:12:24;;;;;;;10.67;7.87;;;;;;;;;;5100718;28;20512;-71
2021/09/26 00:14:53;;;;;;;10.60;8.30;;;;;;;;;;5099619;28;20546;-71
2021/09/26 00:17:22;;;;;;;9.47;8.47;;;;;;;;;;5099131;28;20547;-71
2021/09/26 00:19:50;;;;;;;11.10;8.27;;;;;;;;;;5098485;28;20463;-71
2021/09/26 00:22:18;;;;;;;11.87;7.33;;;;;;;;;;5099744;28;20451;-70
2021/09/26 00:24:46;;;;;;;10.60;8.07;;;;;;;;;;5100532;28;20502;-71
2021/09/26 00:27:14;;;;;;;9.50;7.87;;;;;;;;;;5100376;28;20451;-70
2021/09/26 00:29:42;;;;;;;7.87;6.97;;;;;;;;;;5098765;28;20464;-71
2021/09/26 00:32:13;;;;;;;9.70;7.70;;;;;;;;;;5099561;28;20458;-72
2021/09/26 00:34:42;;;;;;;8.90;6.97;;;;;;;;;;5099846;28;20502;-70
2021/09/26 00:37:10;;;;;;;9.80;7.00;;;;;;;;;;5099558;28;20462;-72
2021/09/26 00:39:38;;;;;;;9.80;8.13;;;;;;;;;;5099233;28;21085;-72
2021/09/26 00:42:06;;;;;;;10.23;9.20;;;;;;;;;;5098979;28;20512;-71
2021/09/26 00:44:34;;;;;;;11.47;7.80;;;;;;;;;;5099003;28;20487;-72
2021/09/26 00:47:02;;;;;;;10.03;8.27;;;;;;;;;;5099260;28;20455;-72
2021/09/26 00:49:30;;;;;;;10.37;7.43;;;;;;;;;;5098931;28;20495;-72
2021/09/26 00:51:59;;;;;;;10.60;8.50;;;;;;;;;;5099195;28;20481;-72
2021/09/26 00:54:27;;;;;;;10.50;7.47;;;;;;;;;;5098619;28;20456;-72
2021/09/26 00:56:55;;;;;;;8.23;7.23;;;;;;;;;;5099034;28;20487;-72
2021/09/26 00:59:23;;;;;;;8.83;7.63;;;;;;;;;;5099197;28;20528;-72
2021/09/26 01:01:51;;;;;;;10.13;7.93;;;;;;;;;;5099202;28;20486;-71
2021/09/26 01:04:19;;;;;;;8.40;7.37;;;;;;;;;;5099012;28;20519;-72
2021/09/26 01:06:52;;;;;;;9.50;6.93;;;;;;;;;;5099038;28;20939;-72
2021/09/26 01:09:24;;;;;;;9.07;7.67;;;;;;;;;;5098587;28;20479;-72
2021/09/26 01:11:56;;;;;;;7.80;7.00;;;;;;;;;;5083365;28;20967;-72
2021/09/26 01:14:25;;;;;;;13.50;8.77;;;;;;;;;;5099915;28;20475;-72
2021/09/26 01:17:00;;;;;;;11.10;7.00;;;;;;;;;;5098277;28;20459;-72
2021/09/26 01:19:40;;;;;;;10.27;6.80;;;;;;;;;;5098758;28;20467;-72
2021/09/26 01:22:12;;;;;;;8.10;7.20;;;;;;;;;;5099221;28;20467;-72
2021/09/26 01:24:55;;;;;;;8.73;6.83;;;;;;;;;;5098679;28;20745;-71
2021/09/26 01:27:37;;;;;;;8.87;7.30;;;;;;;;;;5101758;28;20444;-72
2021/09/26 01:30:20;;;;;;;10.27;6.87;;;;;;;;;;5083071;28;20562;-72
2021/09/26 01:32:56;;;;;;;8.17;6.23;;;;;;;;;;5098156;28;20494;-71
2021/09/26 01:35:25;;;;;;;8.27;6.70;;;;;;;;;;5098145;28;20463;-72
2021/09/26 01:37:57;;;;;;;10.20;6.50;;;;;;;;;;5098218;28;20731;-70
2021/09/26 01:40:29;;;;;;;12.83;6.47;;;;;;;;;;5098149;28;20906;-70
2021/09/26 01:43:00;;;;;;;9.00;6.30;;;;;;;;;;5098631;28;20460;-71
2021/09/26 01:45:32;;;;;;;7.87;7.03;;;;;;;;;;5097988;28;20490;-71
2021/09/26 01:48:04;;;;;;;13.50;7.60;;;;;;;;;;5078304;28;20464;-71
2021/09/26 01:50:32;;;;;;;10.43;8.10;;;;;;;;;;5084700;28;20467;-71
2021/09/26 01:53:01;;;;;;;8.03;7.00;;;;;;;;;;5097967;28;20531;-71
2021/09/26 01:55:29;;;;;;;12.43;6.67;;;;;;;;;;5098316;28;20472;-70
2021/09/26 01:57:59;;;;;;;9.13;6.90;;;;;;;;;;5098094;28;20459;-71
2021/09/26 02:00:27;;;;;;;9.47;6.60;;;;;;;;;;5098113;28;20464;-71
2021/09/26 02:02:55;;;;;;;7.00;6.20;;;;;;;;;;5097796;28;20444;-71
2021/09/26 02:05:25;;;;;;;11.40;7.23;;;;;;;;;;5097300;28;20562;-70
2021/09/26 02:07:54;;;;;;;7.20;6.33;;;;;;;;;;5095164;28;20455;-71
2021/09/26 02:10:22;;;;;;;9.90;6.87;;;;;;;;;;5062685;28;20471;-71
2021/09/26 02:12:50;;;;;;;8.37;7.00;;;;;;;;;;5077953;28;20520;-71
2021/09/26 02:15:21;;;;;;;6.27;5.60;;;;;;;;;;5096363;28;20864;-71
2021/09/26 02:17:49;;;;;;;7.47;6.57;;;;;;;;;;5097897;28;20848;-70
2021/09/26 02:20:19;;;;;;;7.33;5.97;;;;;;;;;;5098179;28;20463;-70
2021/09/26 02:22:49;;;;;;;8.00;5.97;;;;;;;;;;5099250;28;20452;-71
2021/09/26 02:25:22;;;;;;;7.13;6.23;;;;;;;;;;5097403;28;20491;-71
2021/09/26 02:27:50;;;;;;;11.50;5.90;;;;;;;;;;5097895;28;20503;-71
2021/09/26 02:30:18;;;;;;;7.23;6.10;;;;;;;;;;5098411;28;20463;-70
2021/09/26 02:32:47;;;;;;;7.30;5.70;;;;;;;;;;5096662;28;20537;-70
2021/09/26 02:35:15;;;;;;;10.40;6.13;;;;;;;;;;5098498;28;20532;-70
2021/09/26 02:37:43;;;;;;;8.70;6.30;;;;;;;;;;5098358;28;20482;-71
2021/09/26 02:40:13;;;;;;;7.20;6.27;;;;;;;;;;5097103;28;20470;-71
2021/09/26 02:42:44;;;;;;;9.93;6.80;;;;;;;;;;5096981;28;20451;-71
2021/09/26 02:45:13;;;;;;;7.17;5.67;;;;;;;;;;5097487;28;20490;-70
2021/09/26 02:47:43;;;;;;;6.80;5.50;;;;;;;;;;5096983;28;20452;-70
2021/09/26 02:50:12;;;;;;;6.60;5.50;;;;;;;;;;5097589;28;20521;-70
2021/09/26 02:52:40;;;;;;;7.17;6.17;;;;;;;;;;5097100;28;20456;-70
2021/09/26 02:55:08;;;;;;;6.67;6.07;;;;;;;;;;5097455;28;20463;-70
2021/09/26 02:57:38;;;;;;;12.93;5.70;;;;;;;;;;5096697;28;20461;-70
2021/09/26 03:00:06;;;;;;;6.53;5.30;;;;;;;;;;5097232;28;20514;-71
2021/09/26 03:02:35;;;;;;;7.73;6.17;;;;;;;;;;5097001;28;20455;-71
2021/09/26 03:05:03;;;;;;;7.40;6.20;;;;;;;;;;5096718;28;20903;-72
2021/09/26 03:07:33;;;;;;;8.90;6.80;;;;;;;;;;5096820;28;20464;-71
2021/09/26 03:10:00;;;;;;;9.60;7.27;;;;;;;;;;5096569;28;20463;-71
2021/09/26 03:12:28;;;;;;;8.60;6.00;;;;;;;;;;5096791;28;20554;-71
2021/09/26 03:14:57;;;;;;;7.40;6.40;;;;;;;;;;5097576;28;20989;-71
2021/09/26 03:17:25;;;;;;;7.13;6.07;;;;;;;;;;5097656;28;20455;-71
2021/09/26 03:19:53;;;;;;;11.70;6.50;;;;;;;;;;5096897;28;20459;-71
2021/09/26 03:22:21;;;;;;;8.87;5.97;;;;;;;;;;5097797;28;21103;-71
2021/09/26 03:24:48;;;;;;;7.77;5.83;;;;;;;;;;5096289;28;20582;-71
2021/09/26 03:27:16;;;;;;;8.70;6.17;;;;;;;;;;5096676;28;20452;-71
2021/09/26 03:29:44;;;;;;;9.93;6.90;;;;;;;;;;5096615;28;20537;-71
2021/09/26 03:32:14;;;;;;;7.33;5.70;;;;;;;;;;5096510;28;20522;-71
2021/09/26 03:34:42;;;;;;;7.80;6.20;;;;;;;;;;5084402;28;20447;-71
2021/09/26 03:37:09;;;;;;;8.37;5.80;;;;;;;;;;5096682;28;20475;-73
2021/09/26 03:39:37;;;;;;;10.13;7.40;;;;;;;;;;5096705;28;20492;-72
2021/09/26 03:42:06;;;;;;;9.63;6.53;;;;;;;;;;5096246;28;20509;-71
2021/09/26 03:44:33;;;;;;;6.67;5.97;;;;;;;;;;5097284;28;20484;-71
2021/09/26 03:47:16;;;;;;;8.70;6.57;;;;;;;;;;5096409;28;20493;-71
2021/09/26 03:49:43;;;;;;;7.53;5.83;;;;;;;;;;5096664;28;20470;-71
2021/09/26 03:52:13;;;;;;;7.60;6.50;;;;;;;;;;5096472;28;20715;-71
2021/09/26 03:54:41;;;;;;;7.50;6.30;;;;;;;;;;5096434;28;20880;-71
2021/09/26 03:57:09;;;;;;;7.20;5.80;;;;;;;;;;5096834;28;20456;-71
2021/09/26 03:59:36;;;;;;;7.33;5.43;;;;;;;;;;5096476;28;20463;-71
2021/09/26 04:02:05;;;;;;;8.87;5.77;;;;;;;;;;5096769;28;20455;-71
2021/09/26 04:04:36;;;;;;;8.23;6.43;;;;;;;;;;5096273;28;20455;-71
2021/09/26 04:07:05;;;;;;;6.90;6.20;;;;;;;;;;5094777;28;20875;-71
2021/09/26 04:09:33;;;;;;;7.10;6.40;;;;;;;;;;5092691;28;20450;-70
2021/09/26 04:12:00;;;;;;;9.03;8.13;;;;;;;;;;5095629;28;20539;-71
2021/09/26 04:14:28;;;;;;;8.60;6.80;;;;;;;;;;5095071;28;20467;-71
2021/09/26 04:16:58;;;;;;;11.00;6.17;;;;;;;;;;5084296;28;20448;-70
2021/09/26 04:19:26;;;;;;;10.40;7.17;;;;;;;;;;5095988;28;20455;-71
2021/09/26 04:21:55;;;;;;;8.27;6.70;;;;;;;;;;5096181;28;20448;-71
2021/09/26 04:24:23;;;;;;;8.83;6.50;;;;;;;;;;5096250;28;20448;-71
2021/09/26 04:26:51;;;;;;;9.17;6.50;;;;;;;;;;5096557;28;20494;-71
2021/09/26 04:29:18;;;;;;;8.80;6.57;;;;;;;;;;5097449;28;20482;-71
2021/09/26 04:31:46;;;;;;;7.53;6.60;;;;;;;;;;5099917;28;20479;-70
2021/09/26 04:34:14;;;;;;;9.80;7.23;;;;;;;;;;5100057;28;20451;-71
2021/09/26 04:36:42;;;;;;;8.80;6.63;;;;;;;;;;5099386;28;20452;-71
2021/09/26 04:39:11;;;;;;;10.40;6.10;;;;;;;;;;5096314;28;20488;-72
2021/09/26 04:41:39;;;;;;;10.20;6.90;;;;;;;;;;5099266;28;20452;-71
2021/09/26 04:44:07;;;;;;;10.23;7.30;;;;;;;;;;5099002;28;20463;-71
2021/09/26 04:46:41;;;;;;;9.53;8.27;;;;;;;;;;5100541;28;20513;-71
2021/09/26 04:49:09;;;;;;;13.60;6.90;;;;;;;;;;5099640;28;21055;-71
2021/09/26 04:51:37;;;;;;;8.83;6.57;;;;;;;;;;5100610;28;20747;-71
2021/09/26 04:54:05;;;;;;;8.27;6.63;;;;;;;;;;5100212;28;20463;-71
2021/09/26 04:56:34;;;;;;;7.63;6.10;;;;;;;;;;5099429;28;20460;-70
2021/09/26 04:59:02;;;;;;;6.90;6.23;;;;;;;;;;5099840;28;20463;-70
2021/09/26 05:01:30;;;;;;;10.43;6.37;;;;;;;;;;5099545;28;20459;-70
2021/09/26 05:03:58;;;;;;;10.90;8.53;;;;;;;;;;5100343;28;20475;-71
2021/09/26 05:06:26;;;;;;;7.67;6.87;;;;;;;;;;5099982;28;20728;-71
2021/09/26 05:08:54;;;;;;;12.10;8.77;;;;;;;;;;5099246;28;20467;-71
2021/09/26 05:11:22;;;;;;;6.70;5.90;;;;;;;;;;5100046;28;20914;-72
2021/09/26 05:13:51;;;;;;;8.83;6.63;;;;;;;;;;5100499;28;20701;-71
2021/09/26 05:16:20;;;;;;;11.50;7.60;;;;;;;;;;5098531;28;20528;-72
2021/09/26 05:18:48;;;;;;;13.37;6.93;;;;;;;;;;5097780;28;20452;-70
2021/09/26 05:21:21;;;;;;;6.83;6.13;;;;;;;;;;5097547;28;20452;-71
2021/09/26 05:23:51;;;;;;;8.87;6.30;;;;;;;;;;5098264;28;20451;-72
2021/09/26 05:26:20;;;;;;;9.30;6.40;;;;;;;;;;5096617;28;20757;-72
2021/09/26 05:28:47;;;;;;;7.30;6.60;;;;;;;;;;5097488;28;20995;-72
2021/09/26 05:31:17;;;;;;;8.30;6.40;;;;;;;;;;5098238;28;20448;-71
2021/09/26 05:33:45;;;;;;;8.10;6.60;;;;;;;;;;5098599;28;20471;-71
2021/09/26 05:36:12;;;;;;;9.23;6.30;;;;;;;;;;5098796;28;20463;-71
2021/09/26 05:38:40;;;;;;;9.27;7.27;;;;;;;;;;5097418;28;20498;-71
2021/09/26 05:41:11;;;;;;;10.17;7.20;;;;;;;;;;5098892;28;20463;-71
2021/09/26 05:43:39;;;;;;;8.90;7.27;;;;;;;;;;5098194;28;20456;-72
2021/09/26 05:46:09;;;;;;;10.43;7.10;;;;;;;;;;5098178;28;20558;-71
2021/09/26 05:48:39;;;;;;;8.83;7.90;;;;;;;;;;5098336;28;20463;-72
2021/09/26 05:51:08;;;;;;;9.90;7.03;;;;;;;;;;5097955;28;20451;-72
2021/09/26 05:53:37;;;;;;;9.57;8.33;;;;;;;;;;5097617;28;20829;-72
2021/09/26 05:56:05;;;;;;;10.00;7.97;;;;;;;;;;5096758;28;20463;-71
2021/09/26 05:58:36;;;;;;;8.60;7.63;;;;;;;;;;5098507;28;20513;-71
2021/09/26 06:01:03;;;;;;;12.77;7.97;;;;;;;;;;5098246;28;20464;-72
2021/09/26 06:03:31;;;;;;;12.93;10.00;;;;;;;;;;5097988;28;20459;-73
2021/09/26 06:06:04;;;;;;;12.27;8.53;;;;;;;;;;5097580;28;20501;-72
2021/09/26 06:08:35;;;;;;;12.53;8.20;;;;;;;;;;5098541;28;20876;-71
2021/09/26 06:11:03;;;;;;;9.97;9.00;;;;;;;;;;5097542;28;20829;-73
2021/09/26 06:13:32;;;;;;;11.20;8.60;;;;;;;;;;5097396;28;20722;-72
2021/09/26 06:16:02;;;;;;;9.83;8.83;;;;;;;;;;5097476;28;20474;-73
2021/09/26 06:18:30;;;;;;;9.40;8.20;;;;;;;;;;5097667;28;20463;-73
2021/09/26 06:20:58;;;;;;;10.43;9.20;;;;;;;;;;5096687;28;20859;-73
2021/09/26 06:23:28;;;;;;;11.67;9.13;;;;;;;;;;5097597;28;20467;-73
2021/09/26 06:25:55;;;;;;;15.33;10.57;;;;;;;;;;5097220;28;20522;-73
2021/09/26 06:28:23;;;;;;;11.10;9.30;;;;;;;;;;5097917;28;20455;-73
2021/09/26 06:30:51;;;;;;;15.00;9.87;;;;;;;;;;5097886;28;20562;-74
2021/09/26 06:33:19;;;;;;;12.00;10.70;;;;;;;;;;5097257;28;20875;-74
2021/09/26 06:35:46;;;;;;;11.47;9.40;;;;;;;;;;5096249;28;20458;-73
2021/09/26 06:38:14;;;;;;;12.30;8.30;;;;;;;;;;5096112;28;20460;-73
2021/09/26 06:40:47;;;;;;;14.47;9.20;;;;;;;;;;5097752;28;20459;-73
2021/09/26 06:43:16;;;;;;;10.50;8.30;;;;;;;;;;5095723;28;20520;-72
2021/09/26 06:45:47;;;;;;;11.80;8.10;;;;;;;;;;5097576;28;20752;-74
2021/09/26 06:48:17;;;;;;;11.70;7.73;;;;;;;;;;5096555;28;20456;-72
2021/09/26 06:50:45;;;;;;;9.00;8.10;;;;;;;;;;5097265;28;20456;-73
2021/09/26 06:53:13;;;;;;;10.10;7.27;;;;;;;;;;5096588;28;20536;-71
2021/09/26 06:55:41;;;;;;;7.93;6.53;;;;;;;;;;5097543;28;20543;-71
2021/09/26 06:58:10;;;;;;;9.80;7.23;;;;;;;;;;5095592;28;20711;-71
2021/09/26 07:00:38;;;;;;;7.40;6.70;;;;;;;;;;5096819;28;21137;-71
2021/09/26 07:03:06;;;;;;;9.83;7.47;;;;;;;;;;5096168;28;20516;-71
2021/09/26 07:05:37;;;;;;;8.37;6.47;;;;;;;;;;5096077;28;20917;-72
2021/09/26 07:08:05;;;;;;;8.97;6.23;;;;;;;;;;5095453;28;20553;-71
2021/09/26 07:10:33;;;;;;;6.97;6.00;;;;;;;;;;5095584;28;20452;-72
2021/09/26 07:13:01;;;;;;;9.00;5.90;;;;;;;;;;5095971;28;20534;-72
2021/09/26 07:15:34;;;;;;;8.97;5.47;;;;;;;;;;5095786;28;20467;-72
2021/09/26 07:18:02;;;;;;;6.23;5.10;;;;;;;;;;5092229;28;20468;-71
2021/09/26 07:20:31;;;;;;;5.40;4.90;;;;;;;;;;5095424;28;20451;-73
2021/09/26 07:22:59;;;;;;;6.97;5.13;;;;;;;;;;5096081;28;20497;-73
2021/09/26 07:25:27;;;;;;;6.17;4.07;;;;;;;;;;5095848;28;20455;-72
2021/09/26 07:27:55;;;;;;;9.23;4.97;;;;;;;;;;5096236;28;20575;-72
2021/09/26 07:30:23;;;;;;;5.37;4.80;;;;;;;;;;5096142;28;20703;-72
2021/09/26 07:32:55;;;;;;;5.83;5.00;;;;;;;;;;5095868;28;20464;-72
2021/09/26 07:35:23;;;;;;;4.90;4.40;;;;;;;;;;5095156;28;20471;-72
2021/09/26 07:37:51;;;;;;;6.03;4.23;;;;;;;;;;5096288;28;20459;-71
2021/09/26 07:40:53;;;;;;;6.50;4.20;;;;;;;;;;5094967;28;20447;-72
2021/09/26 07:46:22;;;;;;;4.90;4.10;;;;;;;;;;5095028;28;20471;-73
2021/09/26 07:48:52;;;;;;;6.00;4.07;;;;;;;;;;5094362;28;20913;-72
2021/09/26 07:51:28;;;;;;;5.43;4.47;;;;;;;;;;5095624;28;20452;-71
2021/09/26 07:53:57;;;;;;;6.17;3.60;;;;;;;;;;5094975;28;20470;-70
2021/09/26 07:56:25;;;;;;;7.20;3.83;;;;;;;;;;5094601;28;20806;-73
2021/09/26 07:58:54;;;;;;;4.90;4.00;;;;;;;;;;5095004;28;20471;-72
2021/09/26 08:01:24;;;;;;;7.27;4.53;;;;;;;;;;5093206;28;20458;-72
2021/09/26 08:03:53;;;;;;;5.80;4.17;;;;;;;;;;5097966;28;20558;-72
2021/09/26 08:06:21;;;;;;;5.27;3.63;;;;;;;;;;5098038;28;20526;-72
2021/09/26 08:08:52;;;;;;;9.20;4.20;;;;;;;;;;5096973;28;20464;-73
2021/09/26 08:11:20;;;;;;;5.67;4.20;;;;;;;;;;5097871;28;20485;-73
2021/09/26 08:13:48;;;;;;;6.40;4.73;;;;;;;;;;5097716;28;20451;-72
2021/09/26 08:16:18;;;;;;;4.80;4.30;;;;;;;;;;5099359;28;20705;-74
2021/09/26 08:18:46;;;;;;;8.03;4.10;;;;;;;;;;5090044;28;20459;-73
2021/09/26 08:21:16;;;;;;;6.70;4.07;;;;;;;;;;5098762;28;20473;-72
2021/09/26 08:23:44;;;;;;;3.90;3.30;;;;;;;;;;5097846;28;20440;-72
2021/09/26 08:26:12;;;;;;;4.87;4.20;;;;;;;;;;5098206;28;20550;-71
2021/09/26 08:28:40;;;;;;;6.27;4.83;;;;;;;;;;5097372;28;20475;-72
2021/09/26 08:31:08;;;;;;;7.10;3.50;;;;;;;;;;5097477;28;20463;-72
2021/09/26 08:33:36;;;;;;;5.57;5.03;;;;;;;;;;5096511;28;20542;-72
2021/09/26 08:36:06;;;;;;;5.17;3.83;;;;;;;;;;5097177;28;20470;-72
2021/09/26 08:38:36;;;;;;;5.40;4.13;;;;;;;;;;5096477;28;20463;-72
2021/09/26 08:41:09;;;;;;;6.47;4.20;;;;;;;;;;5097518;28;21052;-72
2021/09/26 08:43:37;;;;;;;7.23;4.10;;;;;;;;;;5096418;28;20474;-72
2021/09/26 08:46:05;;;;;;;5.83;4.43;;;;;;;;;;5096762;28;20899;-72
2021/09/26 08:48:35;;;;;;;5.47;3.60;;;;;;;;;;5095849;28;20444;-72
2021/09/26 08:51:04;;;;;;;6.50;3.80;;;;;;;;;;5092293;28;20464;-71
2021/09/26 08:53:32;;;;;;;5.03;4.53;;;;;;;;;;5094210;28;20448;-71
2021/09/26 08:56:01;;;;;;;4.67;4.03;;;;;;;;;;5089108;28;20909;-72
2021/09/26 08:58:33;;;;;;;5.20;4.00;;;;;;;;;;5097716;28;21037;-71
2021/09/26 09:01:05;;;;;;;4.30;3.90;;;;;;;;;;5084685;28;20464;-72
2021/09/26 09:03:35;;;;;;;4.20;3.80;;;;;;;;;;5079486;28;20861;-72
2021/09/26 09:06:04;;;;;;;4.10;3.30;;;;;;;;;;5088984;28;20499;-72
2021/09/26 09:08:32;;;;;;;9.10;4.10;;;;;;;;;;5095560;28;20566;-71
2021/09/26 09:11:04;;;;;;;4.70;4.17;;;;;;;;;;5097403;28;20450;-71
2021/09/26 09:13:33;;;;;;;5.50;3.70;;;;;;;;;;5096150;28;20460;-71
2021/09/26 09:16:10;;;;;;;4.60;3.40;;;;;;;;;;5095510;28;20599;-72
2021/09/26 09:18:42;;;;;;;4.20;3.60;;;;;;;;;;5096306;28;20455;-71
2021/09/26 09:21:36;;;;;;;8.73;3.77;;;;;;;;;;5094961;28;20463;-71
2021/09/26 09:24:20;;;;;;;3.67;2.87;;;;;;;;;;5078630;28;20531;-72
2021/09/26 09:26:50;;;;;;;4.43;3.57;;;;;;;;;;5096166;28;20491;-71
2021/09/26 09:29:23;;;;;;;4.50;3.70;;;;;;;;;;5096520;28;20478;-73
2021/09/26 09:31:52;;;;;;;6.60;3.70;;;;;;;;;;5095698;28;20856;-72
2021/09/26 09:34:32;;;;;;;4.13;3.37;;;;;;;;;;5095396;28;20524;-71
2021/09/26 09:37:13;;;;;;;4.80;3.30;;;;;;;;;;5094712;28;20468;-71
2021/09/26 09:39:42;;;;;;;5.70;3.40;;;;;;;;;;5094139;28;20562;-72
2021/09/26 09:42:23;;;;;;;4.10;3.20;;;;;;;;;;5093647;28;20937;-72
2021/09/26 09:44:51;;;;;;;5.67;4.13;;;;;;;;;;5096071;28;20840;-72
2021/09/26 09:47:21;;;;;;;4.50;3.30;;;;;;;;;;5095989;28;20907;-72
2021/09/26 09:49:57;;;;;;;5.10;3.13;;;;;;;;;;5097149;28;20452;-71
2021/09/26 09:52:46;;;;;;;5.63;3.63;;;;;;;;;;5096638;28;20863;-71
2021/09/26 09:55:19;;;;;;;3.90;3.33;;;;;;;;;;5095177;28;20459;-73
2021/09/26 09:57:54;;;;;;;6.57;3.50;;;;;;;;;;5095095;28;20528;-72
2021/09/26 10:00:23;;;;;;;4.33;2.87;;;;;;;;;;5096685;28;20458;-72
2021/09/26 10:02:59;;;;;;;3.80;2.97;;;;;;;;;;5096706;28;20484;-72
2021/09/26 10:05:33;;;;;;;4.13;3.07;;;;;;;;;;5096302;28;20511;-71
2021/09/26 10:08:00;;;;;;;4.97;2.90;;;;;;;;;;5096906;28;21068;-71
2021/09/26 10:10:32;;;;;;;3.80;3.40;;;;;;;;;;5096822;28;20743;-74
2021/09/26 10:13:14;;;;;;;5.40;3.80;;;;;;;;;;5096199;28;20537;-72
2021/09/26 10:15:42;;;;;;;4.13;3.00;;;;;;;;;;5096146;28;20459;-71
2021/09/26 10:18:13;;;;;;;5.00;4.23;;;;;;;;;;5095693;28;20930;-71
2021/09/26 10:20:42;;;;;;;4.20;3.40;;;;;;;;;;5095728;28;20841;-71
2021/09/26 10:23:10;;;;;;;5.50;4.47;;;;;;;;;;5096550;28;20455;-72
2021/09/26 10:25:42;;;;;;;5.13;3.80;;;;;;;;;;5095191;28;20864;-71
2021/09/26 10:28:17;;;;;;;4.07;3.67;;;;;;;;;;5093901;28;20509;-72
2021/09/26 10:30:50;;;;;;;5.03;3.77;;;;;;;;;;5095324;28;20474;-71
2021/09/26 10:33:21;;;;;;;4.03;3.50;;;;;;;;;;5096355;28;20458;-72
2021/09/26 10:35:50;;;;;;;5.60;3.57;;;;;;;;;;5096322;28;20452;-72
2021/09/26 10:38:19;;;;;;;6.20;3.67;;;;;;;;;;5093789;28;20511;-71
2021/09/26 10:40:49;;;;;;;4.97;3.63;;;;;;;;;;5081992;28;20899;-71
2021/09/26 10:43:22;;;;;;;5.07;3.80;;;;;;;;;;5095385;28;21094;-71
2021/09/26 10:45:51;;;;;;;5.57;4.40;;;;;;;;;;5079953;28;20567;-71
2021/09/26 10:48:20;;;;;;;5.27;3.43;;;;;;;;;;5095487;28;20778;-72
2021/09/26 10:50:52;;;;;;;5.60;4.17;;;;;;;;;;5095785;28;20452;-72
2021/09/26 10:53:20;;;;;;;4.60;3.50;;;;;;;;;;5084902;28;20463;-71
2021/09/26 10:55:51;;;;;;;3.90;3.10;;;;;;;;;;5080586;28;20516;-72
2021/09/26 10:58:38;;;;;;;3.70;3.30;;;;;;;;;;5094188;28;20531;-71
2021/09/26 11:01:07;;;;;;;4.97;4.30;;;;;;;;;;5096228;28;20453;-71
2021/09/26 11:03:42;;;;;;;4.90;3.90;;;;;;;;;;5094895;28;20451;-72
2021/09/26 11:06:34;;;;;;;5.43;4.27;;;;;;;;;;5094461;28;20759;-71
2021/09/26 11:09:04;;;;;;;5.57;3.63;;;;;;;;;;5075222;28;20493;-71
2021/09/26 11:11:39;;;;;;;4.23;3.67;;;;;;;;;;5083750;28;20547;-70
2021/09/26 11:14:10;;;;;;;5.10;3.83;;;;;;;;;;5093048;28;20572;-72
2021/09/26 11:16:55;;;;;;;5.77;3.77;;;;;;;;;;5093014;28;20498;-72
2021/09/26 11:19:27;;;;;;;5.73;4.00;;;;;;;;;;5073036;28;20461;-71
2021/09/26 11:21:59;;;;;;;4.23;3.47;;;;;;;;;;5072441;28;20445;-71
2021/09/26 11:24:42;;;;;;;4.67;3.53;;;;;;;;;;5072536;28;20460;-72
2021/09/26 11:27:20;;;;;;;4.27;3.17;;;;;;;;;;5074952;28;20893;-72
2021/09/26 11:30:06;;;;;;;6.47;3.70;;;;;;;;;;5067266;28;20468;-71
2021/09/26 11:32:39;;;;;;;5.20;3.77;;;;;;;;;;5078272;28;20451;-72
2021/09/26 11:35:08;;;;;;;5.50;3.90;;;;;;;;;;5076345;28;20962;-71
2021/09/26 11:37:59;;;;;;;;;;;;;;;;;;;;;
2021/09/26 11:40:46;;;;;;;11.00;6.30;;;;;;;;;;5058425;28;20449;-70
2021/09/26 11:43:20;;;;;;;9.83;4.63;;;;;;;;;;5060264;28;20560;-71
2021/09/26 11:45:58;;;;;;;5.00;3.40;;;;;;;;;;5091853;28;20851;-71
2021/09/26 11:48:39;;;;;;;9.20;5.70;;;;;;;;;;5077319;28;20519;-72
2021/09/26 11:51:08;;;;;;;5.00;4.20;;;;;;;;;;5077294;28;20470;-70
2021/09/26 11:53:39;;;;;;;7.67;4.83;;;;;;;;;;5077409;28;20460;-72
2021/09/26 11:56:20;;;;;;;6.97;4.23;;;;;;;;;;5076384;28;21095;-71
2021/09/26 11:58:54;;;;;;;8.57;4.00;;;;;;;;;;5077916;28;20483;-72
2021/09/26 12:01:38;;;;;;;5.70;4.03;;;;;;;;;;5094617;28;20474;-72
2021/09/26 12:04:13;;;;;;;6.47;5.30;;;;;;;;;;5097346;28;20538;-73
2021/09/26 12:06:42;;;;;;;4.33;3.93;;;;;;;;;;5097517;28;20482;-72
2021/09/26 12:09:15;;;;;;;5.47;4.00;;;;;;;;;;5084405;28;20575;-72
2021/09/26 12:11:51;;;;;;;4.63;4.10;;;;;;;;;;5093660;28;20448;-72
2021/09/26 12:14:29;;;;;;;5.90;4.83;;;;;;;;;;5096120;28;20463;-71
2021/09/26 12:17:04;;;;;;;8.27;6.23;;;;;;;;;;5096401;28;20470;-72
2021/09/26 12:19:35;;;;;;;6.17;3.90;;;;;;;;;;5076738;28;20460;-70
2021/09/26 12:22:04;;;;;;;6.83;4.80;;;;;;;;;;5075224;28;20453;-71
2021/09/26 12:24:35;;;;;;;5.90;4.53;;;;;;;;;;5091133;28;20451;-72
2021/09/26 12:27:17;;;;;;;4.43;3.67;;;;;;;;;;5075653;28;20464;-70
2021/09/26 12:29:57;;;;;;;6.53;4.07;;;;;;;;;;5096351;28;20512;-73
2021/09/26 12:32:26;;;;;;;6.47;4.40;;;;;;;;;;5097710;28;20568;-72
2021/09/26 12:34:57;;;;;;;8.87;5.37;;;;;;;;;;5096611;28;20746;-71
2021/09/26 12:37:30;;;;;;;5.10;4.47;;;;;;;;;;5087900;28;20545;-72
2021/09/26 12:40:06;;;;;;;5.80;4.40;;;;;;;;;;5096937;28;20487;-72
2021/09/26 12:42:40;;;;;;;6.67;5.07;;;;;;;;;;5097079;28;20447;-72
2021/09/26 12:45:18;;;;;;;4.80;3.83;;;;;;;;;;5097597;28;20852;-72
2021/09/26 12:47:47;;;;;;;4.90;4.30;;;;;;;;;;5095469;28;20713;-71
2021/09/26 12:50:16;;;;;;;4.60;4.10;;;;;;;;;;5096743;28;20456;-72
2021/09/26 12:52:44;;;;;;;4.63;3.90;;;;;;;;;;5096554;28;20458;-71
2021/09/26 12:55:18;;;;;;;7.43;5.37;;;;;;;;;;5095559;28;20886;-71
2021/09/26 12:57:46;;;;;;;8.20;6.10;;;;;;;;;;5096249;28;20524;-72
2021/09/26 13:00:20;;;;;;;10.90;7.90;;;;;;;;;;5111925;28;20473;-72
2021/09/26 13:02:54;;;;;;;4.30;3.63;;;;;;;;;;5100369;28;20451;-72
2021/09/26 13:05:32;;;;;;;5.70;4.20;;;;;;;;;;5094500;28;20452;-72
2021/09/26 13:08:05;;;;;;;6.53;5.20;;;;;;;;;;5095760;28;20483;-72
2021/09/26 13:10:35;;;;;;;4.90;4.37;;;;;;;;;;5096652;28;20743;-71
2021/09/26 13:13:17;;;;;;;11.53;5.90;;;;;;;;;;5094602;28;20532;-72
2021/09/26 13:15:52;;;;;;;6.03;4.80;;;;;;;;;;5089328;28;20860;-71
2021/09/26 13:18:28;;;;;;;5.77;4.00;;;;;;;;;;5079258;28;20455;-71
2021/09/26 13:24:04;;;;;;;10.77;6.43;;;;;;;;;;5094661;28;20485;-71
2021/09/26 13:26:36;;;;;;;9.53;6.10;;;;;;;;;;5091683;28;20459;-71
2021/09/26 13:29:10;;;;;;;5.30;4.30;;;;;;;;;;5095300;28;20548;-71
2021/09/26 13:31:48;;;;;;;6.50;4.67;;;;;;;;;;5096378;28;20479;-72
2021/09/26 13:34:20;;;;;;;6.83;5.63;;;;;;;;;;5094125;28;20931;-72
2021/09/26 13:37:01;;;;;;;9.63;5.23;;;;;;;;;;5074614;28;20460;-71
2021/09/26 13:39:52;;;;;;;6.83;5.43;;;;;;;;;;5075594;28;20464;-71
2021/09/26 13:42:37;;;;;;;7.30;4.80;;;;;;;;;;5086148;28;20525;-72
2021/09/26 13:45:11;;;;;;;8.40;6.30;;;;;;;;;;5096737;28;20529;-71
2021/09/26 13:47:46;;;;;;;6.03;4.83;;;;;;;;;;5085595;28;20492;-72
2021/09/26 13:50:17;;;;;;;8.33;6.00;;;;;;;;;;5075456;28;20457;-71
2021/09/26 13:52:45;;;;;;;7.43;4.87;;;;;;;;;;5087069;28;20456;-72
2021/09/26 13:55:13;;;;;;;7.43;5.70;;;;;;;;;;5093935;28;20891;-71
2021/09/26 13:57:47;;;;;;;16.67;7.90;;;;;;;;;;5095278;28;20448;-72
2021/09/26 14:00:20;;;;;;;9.93;7.20;;;;;;;;;;5094529;28;20887;-71
2021/09/26 14:02:58;;;;;;;10.10;6.60;;;;;;;;;;5093935;28;20455;-71
2021/09/26 14:05:42;;;;;;;6.67;5.63;;;;;;;;;;5094311;28;20946;-71
2021/09/26 14:08:14;;;;;;;6.37;5.63;;;;;;;;;;5093945;28;20515;-71
2021/09/26 14:10:55;;;;;;;5.77;5.00;;;;;;;;;;5089788;28;20445;-72
2021/09/26 14:13:30;;;;;;;8.00;5.80;;;;;;;;;;5080475;28;20818;-71
2021/09/26 14:16:02;;;;;;;9.40;4.80;;;;;;;;;;5094415;28;20444;-71
2021/09/26 14:18:32;;;;;;;5.70;5.10;;;;;;;;;;5093704;28;20517;-72
2021/09/26 14:21:08;;;;;;;9.30;7.47;;;;;;;;;;5094892;28;20474;-73
2021/09/26 14:23:40;;;;;;;8.27;6.23;;;;;;;;;;5085823;28;20521;-72
2021/09/26 14:26:20;;;;;;;6.20;5.60;;;;;;;;;;5091084;28;20444;-71
2021/09/26 14:28:53;;;;;;;9.47;6.90;;;;;;;;;;5086404;28;20493;-71
2021/09/26 14:31:22;;;;;;;6.50;5.13;;;;;;;;;;5094760;28;20471;-72
2021/09/26 14:33:51;;;;;;;8.63;6.50;;;;;;;;;;5094740;28;20533;-71
2021/09/26 14:36:21;;;;;;;7.10;6.40;;;;;;;;;;5095507;28;20463;-72
2021/09/26 14:38:49;;;;;;;5.20;4.40;;;;;;;;;;5095344;28;20460;-72
2021/09/26 14:41:27;;;;;;;7.33;6.10;;;;;;;;;;5094426;28;20448;-72
2021/09/26 14:44:05;;;;;;;6.17;5.57;;;;;;;;;;5074944;28;20503;-71
2021/09/26 14:46:38;;;;;;;19.17;17.07;;;;;;;;;;5080923;28;20463;-72
2021/09/26 14:49:15;;;;;;;6.80;6.00;;;;;;;;;;5092015;28;20498;-72
2021/09/26 14:51:49;;;;;;;7.50;5.63;;;;;;;;;;5093306;28;20439;-71
2021/09/26 14:54:19;;;;;;;6.97;6.30;;;;;;;;;;5091937;28;20551;-71
2021/09/26 14:56:50;;;;;;;6.63;5.93;;;;;;;;;;5093031;28;20443;-71
2021/09/26 14:59:20;;;;;;;9.90;5.40;;;;;;;;;;5091923;28;20463;-70
2021/09/26 15:01:50;;;;;;;8.23;5.73;;;;;;;;;;5093445;28;20836;-73
2021/09/26 15:04:18;;;;;;;6.30;5.70;;;;;;;;;;5078959;28;20805;-71
2021/09/26 15:06:47;;;;;;;6.63;5.93;;;;;;;;;;5090929;28;20447;-71
2021/09/26 15:09:15;;;;;;;7.20;5.50;;;;;;;;;;5094139;28;20501;-72